Time;durP1;ratioP1;P1;durP2;ratioP2;P2;SDS_P1;SDS_P2;PMS_P1;PMS_P2;Temp;Humidity;BMP_temperature;BMP_pressure;BME280_temperature;BME280_humidity;BME280_pressure;Samples;Min_cycle;Max_cycle;Signal;HPM_P1;HPM_P2
2023/12/22 00:01:55;;;;;;;4.45;4.18;;;9.80;99.90;;;;;;5098496;28;20043;-90
2023/12/22 00:04:21;;;;;;;3.67;3.47;;;10.00;99.90;;;;;;5079408;28;20042;-89
2023/12/22 00:06:48;;;;;;;4.22;3.95;;;10.10;99.90;;;;;;5094722;28;20036;-89
2023/12/22 00:09:14;;;;;;;4.28;4.03;;;10.00;99.90;;;;;;5093991;28;20119;-90
2023/12/22 00:11:40;;;;;;;4.07;3.88;;;10.10;99.90;;;;;;5094051;28;20459;-92
2023/12/22 00:14:08;;;;;;;4.40;4.15;;;10.30;99.90;;;;;;5099517;28;20040;-91
2023/12/22 00:16:38;;;;;;;4.70;4.40;;;10.30;99.90;;;;;;5073516;28;20096;-94
2023/12/22 00:19:04;;;;;;;4.65;4.35;;;9.90;99.90;;;;;;5079091;28;20047;-92
2023/12/22 00:21:32;;;;;;;4.75;4.45;;;9.80;99.90;;;;;;5078980;28;20392;-90
2023/12/22 00:23:58;;;;;;;5.05;4.75;;;9.70;99.90;;;;;;5097476;28;20146;-91
2023/12/22 00:26:24;;;;;;;5.15;4.85;;;9.60;99.90;;;;;;5077914;28;20032;-91
2023/12/22 00:28:50;;;;;;;4.15;3.88;;;9.60;99.90;;;;;;5079969;28;20053;-89
2023/12/22 00:31:15;;;;;;;4.43;4.15;;;9.60;99.90;;;;;;5093448;28;20496;-91
2023/12/22 00:33:41;;;;;;;4.28;4.03;;;9.60;99.90;;;;;;5094458;28;20066;-88
2023/12/22 00:36:08;;;;;;;4.65;4.35;;;9.50;99.90;;;;;;5093354;28;20039;-89
2023/12/22 00:38:33;;;;;;;4.80;4.50;;;9.50;99.90;;;;;;5077139;28;20036;-89
2023/12/22 00:40:59;;;;;;;4.75;4.45;;;9.50;99.90;;;;;;5076352;28;20050;-89
2023/12/22 00:43:25;;;;;;;4.97;4.68;;;9.70;99.90;;;;;;5076423;28;20047;-89
2023/12/22 00:45:50;;;;;;;4.75;4.45;;;9.50;99.90;;;;;;5092185;28;20047;-88
2023/12/22 00:48:16;;;;;;;4.55;4.25;;;9.50;99.90;;;;;;5075688;28;20067;-88
2023/12/22 00:50:42;;;;;;;4.47;4.20;;;9.60;99.90;;;;;;5077749;28;20104;-90
2023/12/22 00:53:07;;;;;;;5.00;4.70;;;9.60;99.90;;;;;;5091802;27;20162;-89
2023/12/22 00:55:33;;;;;;;4.05;3.83;;;9.60;99.90;;;;;;5075256;28;20032;-88
2023/12/22 00:57:59;;;;;;;4.57;4.28;;;9.70;99.90;;;;;;5074641;28;20146;-88
2023/12/22 01:00:24;;;;;;;5.10;4.80;;;9.90;99.90;;;;;;5094876;28;20043;-88
2023/12/22 01:02:50;;;;;;;5.00;4.70;;;9.80;99.90;;;;;;5075673;28;20065;-88
2023/12/22 01:05:16;;;;;;;4.93;4.63;;;9.80;99.90;;;;;;5088781;28;20040;-88
2023/12/22 01:07:42;;;;;;;4.60;4.30;;;9.70;99.90;;;;;;5092745;28;20082;-90
2023/12/22 01:10:09;;;;;;;4.07;3.85;;;9.50;99.90;;;;;;5074219;28;20101;-92
2023/12/22 01:12:34;;;;;;;4.93;4.63;;;9.50;99.90;;;;;;5072468;28;20458;-88
2023/12/22 01:15:00;;;;;;;4.55;4.25;;;9.40;99.90;;;;;;5090080;28;20044;-89
2023/12/22 01:17:26;;;;;;;4.32;4.05;;;9.40;99.90;;;;;;5073479;28;20044;-90
2023/12/22 01:19:52;;;;;;;4.95;4.65;;;9.40;99.90;;;;;;5088699;28;20051;-89
2023/12/22 01:22:17;;;;;;;4.60;4.30;;;9.40;99.90;;;;;;5086664;28;20104;-87
2023/12/22 01:24:45;;;;;;;3.85;3.63;;;9.40;99.90;;;;;;5089453;28;20400;-93
2023/12/22 01:27:11;;;;;;;4.55;4.25;;;9.60;99.90;;;;;;5090577;28;20046;-89
2023/12/22 01:29:36;;;;;;;4.30;4.05;;;9.50;99.90;;;;;;5084299;28;20052;-89
2023/12/22 01:32:02;;;;;;;4.75;4.45;;;9.70;99.90;;;;;;5074105;28;20035;-90
2023/12/22 01:34:28;;;;;;;4.30;4.05;;;9.70;99.90;;;;;;5070724;28;20043;-89
2023/12/22 01:36:54;;;;;;;4.60;4.30;;;9.70;99.90;;;;;;5073037;28;20048;-92
2023/12/22 01:39:19;;;;;;;4.93;4.63;;;9.80;99.90;;;;;;5079776;28;20809;-91
2023/12/22 01:41:45;;;;;;;5.00;4.70;;;9.70;99.90;;;;;;5075911;28;20123;-90
2023/12/22 01:44:13;;;;;;;4.32;4.05;;;9.70;99.90;;;;;;5072783;28;20044;-91
2023/12/22 01:46:39;;;;;;;4.95;4.65;;;9.80;99.90;;;;;;5075221;28;20122;-89
2023/12/22 01:49:07;;;;;;;4.75;4.45;;;9.80;99.90;;;;;;5073810;28;20169;-91
2023/12/22 01:51:35;;;;;;;4.18;3.95;;;9.80;99.90;;;;;;5073631;28;20039;-89
2023/12/22 01:54:01;;;;;;;5.03;4.72;;;9.80;99.90;;;;;;5091628;28;20048;-89
2023/12/22 01:56:28;;;;;;;4.55;4.28;;;9.90;99.90;;;;;;5074408;28;20058;-88
2023/12/22 01:58:58;;;;;;;5.43;5.13;;;9.80;99.90;;;;;;5075680;28;20040;-91
2023/12/22 02:01:25;;;;;;;5.30;5.00;;;9.70;99.90;;;;;;5072441;28;20101;-90
2023/12/22 02:03:52;;;;;;;4.95;4.65;;;9.70;99.90;;;;;;5072872;28;20428;-88
2023/12/22 02:06:18;;;;;;;5.63;5.30;;;9.70;99.90;;;;;;5073380;28;20100;-92
2023/12/22 02:08:47;;;;;;;5.18;4.88;;;9.60;99.90;;;;;;5072693;28;20042;-87
2023/12/22 02:11:16;;;;;;;5.32;5.03;;;9.60;99.90;;;;;;5074236;28;20047;-89
2023/12/22 02:13:43;;;;;;;5.15;4.85;;;9.60;99.90;;;;;;5086266;28;20097;-88
2023/12/22 02:16:39;;;;;;;5.22;4.93;;;9.50;99.90;;;;;;5088588;28;20082;-88
2023/12/22 02:19:39;;;;;;;4.85;4.55;;;9.50;99.90;;;;;;5071190;28;20046;-89
2023/12/22 02:22:06;;;;;;;4.75;4.45;;;9.40;99.90;;;;;;5087492;28;20088;-87
2023/12/22 02:24:32;;;;;;;4.18;3.95;;;9.40;99.90;;;;;;5068625;28;20051;-87
2023/12/22 02:27:28;;;;;;;4.65;4.35;;;9.40;99.90;;;;;;5087288;28;20058;-88
2023/12/22 02:30:23;;;;;;;5.15;4.85;;;9.40;99.90;;;;;;5089968;28;20051;-88
2023/12/22 02:32:52;;;;;;;4.78;4.47;;;9.40;99.90;;;;;;5069324;28;20048;-88
2023/12/22 02:35:22;;;;;;;3.97;3.75;;;9.40;99.90;;;;;;5072778;28;20051;-88
2023/12/22 02:37:49;;;;;;;4.85;4.55;;;9.40;99.90;;;;;;5087367;28;20448;-89
2023/12/22 02:40:15;;;;;;;4.85;4.55;;;9.40;99.90;;;;;;5091855;28;20035;-89
2023/12/22 02:42:42;;;;;;;4.97;4.68;;;9.40;99.90;;;;;;5070947;28;20123;-89
2023/12/22 02:45:17;;;;;;;4.10;3.85;;;9.30;99.90;;;;;;5073127;28;20040;-90
2023/12/22 02:47:43;;;;;;;4.55;4.25;;;9.50;99.90;;;;;;5086085;28;20738;-89
2023/12/22 02:50:11;;;;;;;3.85;3.65;;;9.70;99.90;;;;;;5070040;28;20043;-89
2023/12/22 02:52:37;;;;;;;4.80;4.50;;;9.70;99.90;;;;;;5092707;28;20039;-91
2023/12/22 02:55:03;;;;;;;4.47;4.18;;;9.80;99.90;;;;;;5074332;28;20044;-90
2023/12/22 02:57:29;;;;;;;4.85;4.55;;;9.60;99.90;;;;;;5071746;28;20051;-89
2023/12/22 02:59:55;;;;;;;4.70;4.40;;;9.50;99.90;;;;;;5092382;28;20044;-93
2023/12/22 03:02:20;;;;;;;4.47;4.18;;;9.40;99.90;;;;;;5072322;28;20122;-89
2023/12/22 03:04:46;;;;;;;4.30;4.07;;;9.40;99.90;;;;;;5072190;28;20071;-90
2023/12/22 03:07:12;;;;;;;4.65;4.35;;;9.40;99.90;;;;;;5074367;28;20040;-89
2023/12/22 03:09:39;;;;;;;4.47;4.18;;;9.40;99.90;;;;;;5092422;28;20085;-89
2023/12/22 03:12:06;;;;;;;4.22;4.00;;;9.50;99.90;;;;;;5075704;28;20047;-92
2023/12/22 03:14:33;;;;;;;4.25;4.00;;;9.60;99.90;;;;;;5071304;28;20067;-89
2023/12/22 03:17:03;;;;;;;4.63;4.32;;;9.60;99.90;;;;;;5074662;28;20054;-91
2023/12/22 03:19:35;;;;;;;4.72;4.43;;;9.60;99.90;;;;;;5090674;28;20050;-93
2023/12/22 03:22:01;;;;;;;4.93;4.63;;;9.70;99.90;;;;;;5074439;28;20039;-91
2023/12/22 03:24:28;;;;;;;4.38;4.07;;;9.50;99.90;;;;;;5074227;28;20039;-89
2023/12/22 03:26:54;;;;;;;4.90;4.60;;;9.50;99.90;;;;;;5090192;28;20190;-93
2023/12/22 03:29:20;;;;;;;4.28;4.03;;;9.50;99.90;;;;;;5075059;28;20043;-93
2023/12/22 03:31:46;;;;;;;4.95;4.65;;;9.40;99.90;;;;;;5076323;28;20043;-91
2023/12/22 03:34:12;;;;;;;4.85;4.55;;;9.40;99.90;;;;;;5091649;28;20201;-89
2023/12/22 03:36:38;;;;;;;3.45;3.25;;;9.30;99.90;;;;;;5073681;28;20519;-92
2023/12/22 03:39:05;;;;;;;4.38;4.13;;;9.30;99.90;;;;;;5073660;28;20088;-94
2023/12/22 03:41:31;;;;;;;4.63;4.32;;;9.10;99.90;;;;;;5073627;28;20051;-91
2023/12/22 03:43:57;;;;;;;4.28;4.07;;;9.10;99.90;;;;;;5091786;28;20044;-90
2023/12/22 03:46:23;;;;;;;4.13;3.92;;;9.10;99.90;;;;;;5070432;28;20487;-91
2023/12/22 03:48:50;;;;;;;3.90;3.70;;;9.00;99.90;;;;;;5073543;28;20043;-90
2023/12/22 03:51:16;;;;;;;4.38;4.07;;;9.00;99.90;;;;;;5074290;28;20065;-93
2023/12/22 03:53:42;;;;;;;4.95;4.65;;;8.90;99.90;;;;;;5073221;28;20159;-91
2023/12/22 03:56:08;;;;;;;4.40;4.10;;;8.90;99.90;;;;;;5073640;28;20042;-91
2023/12/22 03:58:35;;;;;;;3.95;3.75;;;8.80;99.90;;;;;;5071465;28;20040;-92
2023/12/22 04:01:01;;;;;;;3.65;3.45;;;8.80;99.90;;;;;;5089995;28;20040;-91
2023/12/22 04:03:26;;;;;;;4.00;3.80;;;8.80;99.90;;;;;;5073027;28;20067;-92
2023/12/22 04:05:55;;;;;;;3.42;3.22;;;8.90;99.90;;;;;;5074028;28;20073;-90
2023/12/22 04:08:21;;;;;;;3.88;3.67;;;8.70;99.90;;;;;;5073987;28;20447;-90
2023/12/22 04:10:47;;;;;;;3.00;2.80;;;8.80;99.90;;;;;;5091558;28;20039;-93
2023/12/22 04:13:13;;;;;;;2.55;2.45;;;8.70;99.90;;;;;;5073317;28;20040;-88
2023/12/22 04:15:39;;;;;;;2.70;2.60;;;8.70;99.90;;;;;;5087118;28;20058;-88
2023/12/22 04:18:05;;;;;;;2.50;2.40;;;8.70;99.90;;;;;;5072125;28;20046;-91
2023/12/22 04:20:31;;;;;;;2.40;2.30;;;8.70;99.90;;;;;;5074846;28;20043;-89
2023/12/22 04:22:57;;;;;;;2.30;2.20;;;8.70;99.90;;;;;;5073880;28;20536;-90
2023/12/22 04:25:24;;;;;;;1.73;1.63;;;8.60;99.90;;;;;;5074570;28;20040;-90
2023/12/22 04:27:50;;;;;;;1.70;1.60;;;8.70;99.90;;;;;;5070850;28;20079;-92
2023/12/22 04:30:16;;;;;;;1.73;1.63;;;8.70;99.90;;;;;;5074354;28;20077;-92
2023/12/22 04:32:42;;;;;;;1.80;1.70;;;8.80;99.90;;;;;;5089085;28;20040;-91
2023/12/22 04:35:07;;;;;;;1.75;1.65;;;8.80;99.90;;;;;;5072166;28;20096;-91
2023/12/22 04:37:33;;;;;;;1.33;1.33;;;8.80;99.90;;;;;;5074012;28;20048;-91
2023/12/22 04:39:59;;;;;;;1.30;1.30;;;8.80;99.90;;;;;;5077482;28;20050;-91
2023/12/22 04:42:25;;;;;;;1.30;1.30;;;8.80;99.90;;;;;;5076391;28;20055;-91
2023/12/22 04:44:51;;;;;;;1.50;1.40;;;8.80;99.90;;;;;;5091084;28;20044;-92
2023/12/22 04:47:17;;;;;;;1.95;1.85;;;8.80;99.90;;;;;;5071919;28;20533;-91
2023/12/22 04:49:44;;;;;;;1.70;1.60;;;8.80;99.90;;;;;;5074482;28;20042;-91
2023/12/22 04:52:11;;;;;;;1.30;1.30;;;8.80;99.90;;;;;;5073108;28;20605;-90
2023/12/22 04:54:36;;;;;;;1.88;1.77;;;8.90;99.90;;;;;;5071901;28;20036;-94
2023/12/22 04:57:02;;;;;;;1.60;1.50;;;9.00;99.90;;;;;;5089524;28;20051;-93
2023/12/22 04:59:28;;;;;;;1.90;1.80;;;9.00;99.90;;;;;;5076293;28;20082;-90
2023/12/22 05:01:54;;;;;;;1.52;1.42;;;9.10;99.90;;;;;;5073404;28;20468;-91
2023/12/22 05:04:20;;;;;;;1.92;1.83;;;9.30;99.90;;;;;;5073541;28;20540;-90
2023/12/22 05:06:45;;;;;;;1.90;1.80;;;9.40;99.90;;;;;;5074613;28;20044;-91
2023/12/22 05:09:12;;;;;;;1.80;1.70;;;9.40;99.90;;;;;;5093548;28;20067;-88
2023/12/22 05:11:38;;;;;;;2.42;2.33;;;9.30;99.90;;;;;;5076169;28;20043;-91
2023/12/22 05:14:04;;;;;;;2.00;1.90;;;9.40;99.90;;;;;;5076895;28;20051;-92
2023/12/22 05:16:31;;;;;;;1.88;1.77;;;9.40;99.90;;;;;;5078573;28;20049;-91
2023/12/22 05:19:00;;;;;;;2.05;1.95;;;9.50;99.90;;;;;;5078088;28;20039;-90
2023/12/22 05:21:27;;;;;;;2.40;2.30;;;9.50;99.90;;;;;;5077774;28;20043;-92
2023/12/22 05:23:53;;;;;;;2.60;2.50;;;9.50;99.90;;;;;;5075934;28;20046;-93
2023/12/22 05:26:30;;;;;;;2.40;2.30;;;9.50;99.90;;;;;;5076452;28;20122;-92
2023/12/22 05:28:56;;;;;;;3.03;2.83;;;9.50;99.90;;;;;;5076661;28;20409;-92
2023/12/22 05:31:22;;;;;;;2.95;2.80;;;9.60;99.90;;;;;;5093962;28;20043;-90
2023/12/22 05:33:47;;;;;;;3.30;3.10;;;9.60;99.90;;;;;;5077226;28;20047;-93
2023/12/22 05:36:13;;;;;;;3.83;3.63;;;9.60;99.90;;;;;;5093955;28;20097;-94
2023/12/22 05:38:39;;;;;;;3.55;3.35;;;9.70;99.90;;;;;;5074365;28;20046;-90
2023/12/22 05:41:08;;;;;;;3.25;3.05;;;9.70;99.90;;;;;;5076814;28;20043;-94
2023/12/22 05:43:34;;;;;;;4.00;3.80;;;9.70;99.90;;;;;;5077197;28;20039;-96
2023/12/22 05:46:00;;;;;;;3.97;3.78;;;9.70;99.90;;;;;;5076894;28;20044;-91
2023/12/22 05:48:28;;;;;;;3.65;3.45;;;9.80;99.90;;;;;;5076201;28;20135;-92
2023/12/22 05:50:57;;;;;;;3.90;3.70;;;9.80;99.90;;;;;;5075241;28;20048;-93
2023/12/22 05:53:23;;;;;;;4.90;4.60;;;9.80;99.90;;;;;;5072322;28;20167;-92
2023/12/22 05:55:49;;;;;;;4.60;4.30;;;9.70;99.90;;;;;;5076345;28;20126;-92
2023/12/22 05:58:14;;;;;;;3.90;3.70;;;9.80;99.90;;;;;;5090699;28;20032;-89
2023/12/22 06:00:40;;;;;;;4.10;3.90;;;9.80;99.90;;;;;;5078149;28;20036;-91
2023/12/22 06:03:06;;;;;;;3.95;3.75;;;9.80;99.90;;;;;;5071055;28;20040;-91
2023/12/22 06:05:32;;;;;;;4.57;4.30;;;9.80;99.90;;;;;;5073265;28;20039;-91
2023/12/22 06:07:57;;;;;;;4.70;4.40;;;9.80;99.90;;;;;;5092021;28;20454;-91
2023/12/22 06:10:23;;;;;;;4.55;4.30;;;9.80;99.90;;;;;;5075114;28;20039;-91
2023/12/22 06:12:49;;;;;;;4.30;4.05;;;9.80;99.90;;;;;;5088787;28;20128;-91
2023/12/22 06:15:14;;;;;;;4.35;4.13;;;9.80;99.90;;;;;;5075007;28;20100;-91
2023/12/22 06:17:40;;;;;;;3.85;3.65;;;9.80;99.90;;;;;;5089982;28;20082;-90
2023/12/22 06:20:06;;;;;;;4.47;4.25;;;9.80;99.90;;;;;;5091699;28;20126;-90
2023/12/22 06:22:32;;;;;;;4.25;4.05;;;10.00;99.90;;;;;;5092665;28;20074;-90
2023/12/22 06:24:58;;;;;;;3.85;3.65;;;10.00;99.90;;;;;;5093637;28;20063;-92
2023/12/22 06:27:25;;;;;;;3.72;3.53;;;9.90;99.90;;;;;;5091703;28;20393;-90
2023/12/22 06:29:50;;;;;;;4.63;4.32;;;10.00;99.90;;;;;;5075051;28;20048;-90
2023/12/22 06:32:17;;;;;;;4.70;4.40;;;10.00;99.90;;;;;;5076347;28;20043;-90
2023/12/22 06:34:42;;;;;;;4.60;4.30;;;10.10;99.90;;;;;;5076345;28;20082;-91
2023/12/22 06:37:08;;;;;;;4.80;4.50;;;10.10;99.90;;;;;;5075942;28;20068;-92
2023/12/22 06:39:34;;;;;;;3.90;3.70;;;10.00;99.90;;;;;;5075533;28;20085;-92
2023/12/22 06:42:00;;;;;;;4.45;4.25;;;10.00;99.90;;;;;;5074368;28;20548;-91
2023/12/22 06:44:26;;;;;;;3.70;3.50;;;10.10;99.90;;;;;;5075087;28;20501;-90
2023/12/22 06:46:52;;;;;;;4.28;4.07;;;10.10;99.90;;;;;;5085134;28;20123;-89
2023/12/22 06:49:18;;;;;;;3.90;3.70;;;10.10;99.90;;;;;;5075281;28;20078;-91
2023/12/22 06:51:43;;;;;;;3.80;3.60;;;10.10;99.90;;;;;;5074371;28;20071;-89
2023/12/22 06:54:09;;;;;;;3.53;3.33;;;10.10;99.90;;;;;;5075402;28;20039;-91
2023/12/22 06:56:35;;;;;;;3.90;3.70;;;10.10;99.90;;;;;;5072641;28;20032;-90
2023/12/22 06:59:02;;;;;;;3.95;3.75;;;10.00;99.90;;;;;;5074255;28;20435;-92
2023/12/22 07:01:33;;;;;;;3.85;3.65;;;10.00;99.90;;;;;;5088780;28;20109;-91
2023/12/22 07:04:00;;;;;;;3.95;3.75;;;10.00;99.90;;;;;;5086376;28;20043;-91
2023/12/22 07:06:28;;;;;;;3.35;3.15;;;10.00;99.90;;;;;;5073321;28;20040;-91
2023/12/22 07:09:12;;;;;;;3.72;3.53;;;10.00;99.90;;;;;;5091678;28;20040;-91
2023/12/22 07:11:38;;;;;;;;;;;10.10;99.90;;;;;;5093105;28;20039;-94
2023/12/22 07:14:04;;;;;;;4.03;3.83;;;10.10;99.90;;;;;;5075612;28;20416;-92
2023/12/22 07:16:30;;;;;;;4.30;4.10;;;10.10;99.90;;;;;;5089946;28;20050;-92
2023/12/22 07:18:55;;;;;;;4.00;3.80;;;10.20;99.90;;;;;;5074447;28;20558;-90
2023/12/22 07:21:21;;;;;;;3.25;3.05;;;10.20;99.90;;;;;;5071856;28;20046;-91
2023/12/22 07:23:47;;;;;;;3.75;3.55;;;10.20;99.90;;;;;;5072993;28;20468;-91
2023/12/22 07:26:12;;;;;;;3.42;3.22;;;10.20;99.90;;;;;;5071151;28;20457;-92
2023/12/22 07:28:38;;;;;;;3.38;3.17;;;10.20;99.90;;;;;;5075296;28;20118;-91
2023/12/22 07:31:05;;;;;;;3.45;3.25;;;10.20;99.90;;;;;;5084112;28;20400;-91
2023/12/22 07:33:31;;;;;;;3.25;3.05;;;10.30;99.90;;;;;;5088674;28;20075;-90
2023/12/22 07:35:56;;;;;;;3.38;3.17;;;10.20;99.90;;;;;;5072674;28;20047;-90
2023/12/22 07:38:22;;;;;;;3.35;3.15;;;10.20;99.90;;;;;;5071753;28;20054;-92
2023/12/22 07:40:49;;;;;;;3.20;3.00;;;10.20;99.90;;;;;;5075546;28;20048;-91
2023/12/22 07:43:15;;;;;;;3.20;3.00;;;10.30;99.90;;;;;;5072925;28;20086;-90
2023/12/22 07:45:41;;;;;;;2.85;2.75;;;10.20;99.90;;;;;;5074825;28;20043;-91
2023/12/22 07:48:07;;;;;;;3.15;2.95;;;10.20;99.90;;;;;;5074826;28;20032;-88
2023/12/22 07:50:33;;;;;;;3.10;2.90;;;10.20;99.90;;;;;;5087682;28;20122;-89
2023/12/22 07:52:59;;;;;;;2.63;2.53;;;10.20;99.90;;;;;;5072314;28;20117;-92
2023/12/22 07:55:25;;;;;;;2.72;2.63;;;10.20;99.90;;;;;;5090375;28;20484;-91
2023/12/22 07:57:50;;;;;;;3.35;3.15;;;10.20;99.90;;;;;;5092662;28;20457;-92
2023/12/22 08:00:17;;;;;;;3.10;2.90;;;10.10;99.90;;;;;;5073395;28;20071;-94
2023/12/22 08:02:43;;;;;;;3.42;3.22;;;10.20;99.90;;;;;;5074156;28;20035;-91
2023/12/22 08:05:09;;;;;;;3.42;3.22;;;10.20;99.90;;;;;;5072022;28;20497;-93
2023/12/22 08:07:36;;;;;;;2.65;2.55;;;10.10;99.90;;;;;;5074774;28;20038;-91
2023/12/22 08:10:02;;;;;;;2.55;2.45;;;10.10;99.90;;;;;;5072369;28;20044;-91
2023/12/22 08:12:28;;;;;;;2.45;2.35;;;10.20;99.90;;;;;;5077089;28;20442;-91
2023/12/22 08:14:54;;;;;;;2.95;2.80;;;10.10;99.90;;;;;;5096322;28;20126;-92
2023/12/22 08:17:20;;;;;;;3.25;3.05;;;10.10;99.90;;;;;;5077926;28;20079;-92
2023/12/22 08:19:47;;;;;;;2.60;2.50;;;10.10;99.90;;;;;;5078720;28;20097;-91
2023/12/22 08:22:15;;;;;;;2.45;2.35;;;10.20;99.90;;;;;;5078294;28;20039;-90
2023/12/22 08:24:41;;;;;;;2.40;2.30;;;10.20;99.90;;;;;;5078679;28;20126;-90
2023/12/22 08:27:07;;;;;;;2.42;2.33;;;10.20;99.90;;;;;;5094128;28;20193;-92
2023/12/22 08:29:33;;;;;;;2.50;2.40;;;10.20;99.90;;;;;;5094832;28;20043;-91
2023/12/22 08:32:00;;;;;;;2.60;2.50;;;10.20;99.90;;;;;;5079084;28;20407;-90
2023/12/22 08:34:29;;;;;;;3.03;2.83;;;10.20;99.90;;;;;;5078883;28;20043;-89
2023/12/22 08:36:54;;;;;;;3.05;2.85;;;10.20;99.90;;;;;;5074291;28;20055;-90
2023/12/22 08:39:20;;;;;;;2.50;2.40;;;10.20;99.90;;;;;;5078982;28;20039;-90
2023/12/22 08:41:47;;;;;;;2.70;2.60;;;10.20;99.90;;;;;;5093354;28;20046;-92
2023/12/22 08:44:16;;;;;;;3.20;3.00;;;10.20;99.90;;;;;;5095966;28;20074;-90
2023/12/22 08:46:42;;;;;;;2.50;2.40;;;10.30;99.90;;;;;;5077856;28;20050;-92
2023/12/22 08:49:08;;;;;;;3.13;2.92;;;10.30;99.90;;;;;;5078091;28;20043;-91
2023/12/22 08:51:34;;;;;;;2.70;2.60;;;10.30;99.90;;;;;;5077390;28;20048;-93
2023/12/22 08:53:59;;;;;;;2.70;2.60;;;10.30;99.90;;;;;;5077437;28;20300;-92
2023/12/22 08:56:26;;;;;;;2.70;2.60;;;10.30;99.90;;;;;;5094122;28;20047;-90
2023/12/22 08:58:54;;;;;;;3.35;3.15;;;10.30;99.90;;;;;;5078872;28;20040;-91
2023/12/22 09:01:21;;;;;;;2.75;2.60;;;10.40;99.90;;;;;;5090224;28;20130;-90
2023/12/22 09:03:48;;;;;;;2.60;2.50;;;10.40;99.90;;;;;;5068980;28;20044;-92
2023/12/22 09:06:18;;;;;;;2.70;2.60;;;10.40;99.90;;;;;;5087016;28;20047;-91
2023/12/22 09:08:44;;;;;;;3.53;3.33;;;10.50;99.90;;;;;;5076731;28;20074;-90
2023/12/22 09:11:12;;;;;;;3.10;2.90;;;10.50;99.90;;;;;;5075413;28;20077;-92
2023/12/22 09:13:38;;;;;;;3.50;3.30;;;10.50;99.90;;;;;;5079009;28;20039;-91
2023/12/22 09:16:05;;;;;;;3.05;2.85;;;10.60;99.90;;;;;;5092988;28;20100;-93
2023/12/22 09:18:34;;;;;;;2.75;2.65;;;10.60;99.90;;;;;;5095043;28;20051;-90
2023/12/22 09:21:00;;;;;;;3.50;3.30;;;10.60;99.90;;;;;;5076908;28;20100;-90
2023/12/22 09:23:26;;;;;;;3.40;3.20;;;10.60;99.90;;;;;;5093681;28;20719;-92
2023/12/22 09:25:51;;;;;;;3.55;3.35;;;10.60;99.90;;;;;;5075069;28;20048;-88
2023/12/22 09:28:17;;;;;;;3.42;3.22;;;10.60;99.90;;;;;;5092016;28;20415;-90
2023/12/22 09:30:43;;;;;;;3.53;3.33;;;10.70;99.90;;;;;;5089638;28;20035;-88
2023/12/22 09:33:12;;;;;;;3.25;3.05;;;10.80;99.90;;;;;;5093914;28;20047;-90
2023/12/22 09:35:41;;;;;;;3.40;3.20;;;11.00;99.90;;;;;;5094176;28;20123;-90
2023/12/22 09:38:09;;;;;;;3.03;2.83;;;11.00;99.90;;;;;;5090462;28;20374;-92
2023/12/22 09:40:36;;;;;;;3.70;3.50;;;10.90;99.90;;;;;;5074905;28;20040;-91
2023/12/22 09:43:02;;;;;;;4.00;3.80;;;10.80;99.90;;;;;;5076945;28;20035;-91
2023/12/22 09:45:33;;;;;;;3.90;3.70;;;10.80;99.90;;;;;;5076539;28;20035;-90
2023/12/22 09:48:01;;;;;;;3.30;3.10;;;10.70;99.90;;;;;;5075576;28;20047;-91
2023/12/22 09:50:28;;;;;;;3.45;3.25;;;10.70;99.90;;;;;;5076190;28;20419;-89
2023/12/22 09:52:54;;;;;;;4.03;3.83;;;10.60;99.90;;;;;;5089673;28;20383;-91
2023/12/22 09:55:22;;;;;;;3.90;3.70;;;10.60;99.90;;;;;;5073192;28;20043;-90
2023/12/22 09:57:49;;;;;;;3.80;3.60;;;10.60;99.90;;;;;;5076928;28;20055;-90
2023/12/22 10:00:16;;;;;;;3.60;3.40;;;10.60;99.90;;;;;;5075383;28;20054;-90
2023/12/22 10:02:44;;;;;;;3.40;3.20;;;10.60;99.90;;;;;;5074262;28;20072;-90
2023/12/22 10:05:10;;;;;;;3.25;3.05;;;10.60;99.90;;;;;;5076244;28;20440;-92
2023/12/22 10:07:36;;;;;;;3.15;2.95;;;10.60;99.90;;;;;;5073678;28;20149;-90
2023/12/22 10:10:04;;;;;;;3.20;3.00;;;10.50;99.90;;;;;;5074838;28;20122;-92
2023/12/22 10:12:33;;;;;;;3.70;3.50;;;10.50;99.90;;;;;;5074806;28;20052;-89
2023/12/22 10:15:00;;;;;;;3.13;2.92;;;10.50;99.90;;;;;;5091986;28;20048;-92
2023/12/22 10:17:26;;;;;;;3.17;2.97;;;10.50;99.90;;;;;;5092975;28;20040;-91
2023/12/22 10:19:52;;;;;;;3.55;3.35;;;10.40;99.90;;;;;;5077105;28;20043;-92
2023/12/22 10:22:18;;;;;;;3.13;2.92;;;10.40;99.90;;;;;;5075034;28;20108;-90
2023/12/22 10:24:47;;;;;;;3.03;2.83;;;10.40;99.90;;;;;;5092174;28;20482;-92
2023/12/22 10:27:15;;;;;;;3.60;3.40;;;10.30;99.90;;;;;;5070829;28;20100;-91
2023/12/22 10:29:41;;;;;;;2.88;2.72;;;10.30;99.90;;;;;;5073969;28;20040;-90
2023/12/22 10:32:08;;;;;;;3.63;3.42;;;10.30;99.90;;;;;;5070117;28;20067;-91
2023/12/22 10:34:34;;;;;;;2.80;2.70;;;10.30;99.90;;;;;;5073025;28;20134;-91
2023/12/22 10:37:00;;;;;;;3.20;3.00;;;10.30;99.90;;;;;;5076445;28;20053;-92
2023/12/22 10:39:35;;;;;;;3.13;2.92;;;10.30;99.90;;;;;;5074534;28;20071;-90
2023/12/22 10:42:02;;;;;;;3.30;3.10;;;10.30;99.90;;;;;;5070702;28;20538;-92
2023/12/22 10:44:29;;;;;;;3.20;3.00;;;10.30;99.90;;;;;;5090930;28;20374;-90
2023/12/22 10:46:55;;;;;;;3.35;3.15;;;10.30;99.90;;;;;;5071293;28;20146;-91
2023/12/22 10:49:22;;;;;;;3.30;3.10;;;10.30;99.90;;;;;;5071939;28;20058;-90
2023/12/22 10:51:48;;;;;;;2.83;2.63;;;10.20;99.90;;;;;;5071602;28;20829;-89
2023/12/22 10:54:14;;;;;;;2.88;2.70;;;10.20;99.90;;;;;;5089284;28;20462;-90
2023/12/22 10:56:40;;;;;;;3.00;2.80;;;10.20;99.90;;;;;;5070357;28;20035;-90
2023/12/22 10:59:06;;;;;;;3.33;3.13;;;10.20;99.90;;;;;;5073962;28;20044;-90
2023/12/22 11:01:38;;;;;;;3.30;3.10;;;10.30;99.90;;;;;;5090982;28;20039;-90
2023/12/22 11:04:07;;;;;;;3.22;3.03;;;10.30;99.90;;;;;;5071146;28;20042;-90
2023/12/22 11:06:37;;;;;;;3.00;2.80;;;10.30;99.90;;;;;;5089932;28;20035;-88
2023/12/22 11:09:10;;;;;;;3.22;3.03;;;10.30;99.90;;;;;;5085987;28;20480;-88
2023/12/22 11:11:40;;;;;;;2.90;2.70;;;10.30;99.90;;;;;;5072142;28;20069;-89
2023/12/22 11:14:06;;;;;;;3.22;3.03;;;10.30;99.90;;;;;;5074509;28;20040;-89
2023/12/22 11:16:34;;;;;;;2.83;2.70;;;10.40;99.90;;;;;;5072703;28;20171;-89
2023/12/22 11:19:01;;;;;;;2.80;2.70;;;10.40;99.90;;;;;;5074572;28;20040;-90
2023/12/22 11:21:28;;;;;;;3.22;3.03;;;10.40;99.90;;;;;;5088428;28;20503;-91
2023/12/22 11:23:54;;;;;;;3.00;2.80;;;10.40;99.90;;;;;;5072506;28;20050;-91
2023/12/22 11:26:24;;;;;;;2.60;2.50;;;10.50;99.90;;;;;;5075186;28;20048;-89
2023/12/22 11:28:51;;;;;;;2.78;2.67;;;10.50;99.90;;;;;;5071523;28;20508;-89
2023/12/22 11:31:20;;;;;;;3.30;3.10;;;10.50;99.90;;;;;;5089317;28;20493;-90
2023/12/22 11:33:50;;;;;;;3.47;3.28;;;10.60;99.90;;;;;;5090087;28;20071;-90
2023/12/22 11:36:17;;;;;;;3.45;3.25;;;10.60;99.90;;;;;;5091825;28;20075;-89
2023/12/22 11:38:46;;;;;;;2.78;2.60;;;10.60;99.90;;;;;;5089169;28;20036;-91
2023/12/22 11:41:18;;;;;;;3.10;2.90;;;10.60;99.90;;;;;;5073324;28;20040;-90
2023/12/22 11:43:45;;;;;;;3.40;3.20;;;10.60;99.90;;;;;;5071242;28;20052;-89
2023/12/22 11:46:11;;;;;;;3.10;2.90;;;10.70;99.90;;;;;;5091580;28;20043;-90
2023/12/22 11:48:37;;;;;;;2.92;2.75;;;10.70;99.90;;;;;;5087884;28;20059;-89
2023/12/22 11:51:16;;;;;;;3.63;3.42;;;10.60;99.90;;;;;;5090084;28;20565;-89
2023/12/22 11:53:42;;;;;;;3.50;3.30;;;10.70;99.90;;;;;;5072311;28;20047;-90
2023/12/22 11:56:09;;;;;;;3.40;3.20;;;10.70;99.90;;;;;;5071685;28;20100;-89
2023/12/22 11:58:58;;;;;;;3.22;3.03;;;10.70;99.90;;;;;;5090434;28;20043;-88
2023/12/22 12:01:25;;;;;;;3.80;3.60;;;10.70;99.90;;;;;;5087047;28;20039;-91
2023/12/22 12:03:51;;;;;;;3.17;2.97;;;10.70;99.90;;;;;;5069783;28;20048;-90
2023/12/22 12:06:25;;;;;;;3.42;3.22;;;10.70;99.90;;;;;;5069588;28;20085;-90
2023/12/22 12:08:55;;;;;;;3.70;3.50;;;10.70;99.90;;;;;;5074517;28;20089;-92
2023/12/22 12:11:21;;;;;;;3.75;3.55;;;10.70;99.90;;;;;;5067139;28;20493;-89
2023/12/22 12:13:48;;;;;;;3.22;3.03;;;10.70;99.90;;;;;;5069866;28;20134;-89
2023/12/22 12:16:18;;;;;;;3.70;3.50;;;10.70;99.90;;;;;;5084074;28;20419;-89
2023/12/22 12:18:45;;;;;;;3.22;3.03;;;10.70;99.90;;;;;;5069997;28;20046;-89
2023/12/22 12:21:11;;;;;;;3.58;3.38;;;10.70;99.90;;;;;;5085561;28;20093;-89
2023/12/22 12:23:40;;;;;;;3.80;3.60;;;10.70;99.90;;;;;;5087265;28;20566;-90
2023/12/22 12:26:12;;;;;;;3.72;3.53;;;10.80;99.90;;;;;;5086884;28;20043;-89
2023/12/22 12:28:43;;;;;;;3.33;3.13;;;10.80;99.90;;;;;;5089512;28;20046;-91
2023/12/22 12:31:09;;;;;;;3.70;3.50;;;10.70;99.90;;;;;;5073301;28;20078;-91
2023/12/22 12:33:38;;;;;;;3.42;3.22;;;10.80;99.90;;;;;;5072639;28;20050;-91
2023/12/22 12:36:04;;;;;;;3.55;3.35;;;10.80;99.90;;;;;;5073212;28;20039;-93
2023/12/22 12:38:37;;;;;;;3.90;3.70;;;10.80;99.90;;;;;;5073864;28;20043;-90
2023/12/22 12:41:07;;;;;;;3.50;3.30;;;10.80;99.90;;;;;;5062446;28;20063;-88
2023/12/22 12:43:33;;;;;;;3.35;3.15;;;10.80;99.90;;;;;;5066324;28;20089;-87
2023/12/22 12:46:05;;;;;;;4.40;4.10;;;10.80;99.90;;;;;;5068173;28;20505;-93
2023/12/22 12:48:31;;;;;;;3.72;3.53;;;10.80;99.90;;;;;;5070867;28;20054;-89
2023/12/22 12:51:07;;;;;;;3.50;3.30;;;10.80;99.90;;;;;;5088035;28;20043;-92
2023/12/22 12:53:33;;;;;;;4.47;4.18;;;10.80;99.90;;;;;;5082996;28;20059;-91